sensor_id;sensor_type;location;lat;lon;timestamp;temperature;humidity
35313;DHT22;21425;50.454;30.466;2023-04-07T00:02:24;5.00;99.90
35313;DHT22;21425;50.454;30.466;2023-04-07T00:04:50;5.80;99.90
35313;DHT22;21425;50.454;30.466;2023-04-07T00:07:15;6.90;99.90
35313;DHT22;21425;50.454;30.466;2023-04-07T00:09:41;5.50;99.90
35313;DHT22;21425;50.454;30.466;2023-04-07T00:12:06;6.80;99.90
35313;DHT22;21425;50.454;30.466;2023-04-07T00:14:32;7.00;99.90
35313;DHT22;21425;50.454;30.466;2023-04-07T00:16:57;5.60;99.90
35313;DHT22;21425;50.454;30.466;2023-04-07T00:19:23;5.50;99.90
35313;DHT22;21425;50.454;30.466;2023-04-07T00:21:48;5.60;99.90
35313;DHT22;21425;50.454;30.466;2023-04-07T00:24:14;5.40;99.90
35313;DHT22;21425;50.454;30.466;2023-04-07T00:26:39;5.50;99.90
35313;DHT22;21425;50.454;30.466;2023-04-07T00:29:05;5.30;99.90
35313;DHT22;21425;50.454;30.466;2023-04-07T00:31:30;5.30;99.90
35313;DHT22;21425;50.454;30.466;2023-04-07T00:33:56;5.40;99.90
35313;DHT22;21425;50.454;30.466;2023-04-07T00:36:22;6.50;99.90
35313;DHT22;21425;50.454;30.466;2023-04-07T00:38:47;5.20;99.90
35313;DHT22;21425;50.454;30.466;2023-04-07T00:41:13;5.50;99.90
35313;DHT22;21425;50.454;30.466;2023-04-07T00:43:38;7.40;99.90
35313;DHT22;21425;50.454;30.466;2023-04-07T00:46:04;5.30;99.90
35313;DHT22;21425;50.454;30.466;2023-04-07T00:48:30;5.20;99.90
35313;DHT22;21425;50.454;30.466;2023-04-07T00:50:55;5.30;99.90
35313;DHT22;21425;50.454;30.466;2023-04-07T00:53:21;7.20;99.90
35313;DHT22;21425;50.454;30.466;2023-04-07T00:55:47;5.40;99.90
35313;DHT22;21425;50.454;30.466;2023-04-07T00:58:12;5.20;99.90
35313;DHT22;21425;50.454;30.466;2023-04-07T01:00:51;5.90;99.90
35313;DHT22;21425;50.454;30.466;2023-04-07T01:03:21;5.30;99.90
35313;DHT22;21425;50.454;30.466;2023-04-07T01:05:53;5.30;99.90
35313;DHT22;21425;50.454;30.466;2023-04-07T01:08:23;5.20;99.90
35313;DHT22;21425;50.454;30.466;2023-04-07T01:11:07;5.20;99.90
35313;DHT22;21425;50.454;30.466;2023-04-07T01:13:42;5.10;99.90
35313;DHT22;21425;50.454;30.466;2023-04-07T01:16:11;5.30;99.90
35313;DHT22;21425;50.454;30.466;2023-04-07T01:18:37;5.30;99.90
35313;DHT22;21425;50.454;30.466;2023-04-07T01:21:06;4.90;99.90
35313;DHT22;21425;50.454;30.466;2023-04-07T01:26:18;5.00;99.90
35313;DHT22;21425;50.454;30.466;2023-04-07T01:31:16;5.00;99.90
35313;DHT22;21425;50.454;30.466;2023-04-07T01:33:42;6.60;99.90
35313;DHT22;21425;50.454;30.466;2023-04-07T01:36:08;5.20;99.90
35313;DHT22;21425;50.454;30.466;2023-04-07T01:38:35;4.80;99.90
35313;DHT22;21425;50.454;30.466;2023-04-07T01:41:02;4.80;99.90
35313;DHT22;21425;50.454;30.466;2023-04-07T01:43:27;4.80;99.90
35313;DHT22;21425;50.454;30.466;2023-04-07T01:45:54;4.70;99.90
35313;DHT22;21425;50.454;30.466;2023-04-07T01:48:21;4.80;99.90
35313;DHT22;21425;50.454;30.466;2023-04-07T01:50:46;4.80;99.90
35313;DHT22;21425;50.454;30.466;2023-04-07T01:53:13;7.20;99.90
35313;DHT22;21425;50.454;30.466;2023-04-07T01:55:40;8.10;99.90
35313;DHT22;21425;50.454;30.466;2023-04-07T01:58:06;4.80;99.90
35313;DHT22;21425;50.454;30.466;2023-04-07T02:00:32;5.00;99.90
35313;DHT22;21425;50.454;30.466;2023-04-07T02:03:12;5.00;99.90
35313;DHT22;21425;50.454;30.466;2023-04-07T02:05:45;4.80;99.90
35313;DHT22;21425;50.454;30.466;2023-04-07T02:08:11;4.80;99.90
35313;DHT22;21425;50.454;30.466;2023-04-07T02:10:38;6.50;99.90
35313;DHT22;21425;50.454;30.466;2023-04-07T02:13:04;4.80;99.90
35313;DHT22;21425;50.454;30.466;2023-04-07T02:15:30;4.60;99.90
35313;DHT22;21425;50.454;30.466;2023-04-07T02:17:57;2.90;99.90
35313;DHT22;21425;50.454;30.466;2023-04-07T02:20:23;4.80;99.90
35313;DHT22;21425;50.454;30.466;2023-04-07T02:22:48;3.00;99.90
35313;DHT22;21425;50.454;30.466;2023-04-07T02:27:49;4.70;99.90
35313;DHT22;21425;50.454;30.466;2023-04-07T02:30:14;7.50;99.90
35313;DHT22;21425;50.454;30.466;2023-04-07T02:32:40;4.90;99.90
35313;DHT22;21425;50.454;30.466;2023-04-07T02:35:05;4.80;99.90
35313;DHT22;21425;50.454;30.466;2023-04-07T02:37:31;4.80;99.90
35313;DHT22;21425;50.454;30.466;2023-04-07T02:39:56;6.30;99.90
35313;DHT22;21425;50.454;30.466;2023-04-07T02:42:24;4.90;99.90
35313;DHT22;21425;50.454;30.466;2023-04-07T02:44:49;4.70;99.90
35313;DHT22;21425;50.454;30.466;2023-04-07T02:47:15;3.10;99.90
35313;DHT22;21425;50.454;30.466;2023-04-07T02:49:41;4.10;99.90
35313;DHT22;21425;50.454;30.466;2023-04-07T02:52:06;4.70;99.90
35313;DHT22;21425;50.454;30.466;2023-04-07T02:54:32;4.70;99.90
35313;DHT22;21425;50.454;30.466;2023-04-07T02:56:57;5.20;99.90
35313;DHT22;21425;50.454;30.466;2023-04-07T02:59:23;5.40;99.90
35313;DHT22;21425;50.454;30.466;2023-04-07T03:01:48;5.00;99.90
35313;DHT22;21425;50.454;30.466;2023-04-07T03:04:14;6.20;99.90
35313;DHT22;21425;50.454;30.466;2023-04-07T03:06:39;4.80;99.90
35313;DHT22;21425;50.454;30.466;2023-04-07T03:09:05;4.60;99.90
35313;DHT22;21425;50.454;30.466;2023-04-07T03:11:31;4.70;99.90
35313;DHT22;21425;50.454;30.466;2023-04-07T03:13:56;4.70;99.90
35313;DHT22;21425;50.454;30.466;2023-04-07T03:16:22;4.50;99.90
35313;DHT22;21425;50.454;30.466;2023-04-07T03:18:47;4.60;99.90
35313;DHT22;21425;50.454;30.466;2023-04-07T03:21:13;4.50;99.90
35313;DHT22;21425;50.454;30.466;2023-04-07T03:23:38;4.30;99.90
35313;DHT22;21425;50.454;30.466;2023-04-07T03:26:04;4.20;99.90
35313;DHT22;21425;50.454;30.466;2023-04-07T03:28:29;4.50;99.90
35313;DHT22;21425;50.454;30.466;2023-04-07T03:30:55;4.30;99.90
35313;DHT22;21425;50.454;30.466;2023-04-07T03:33:20;4.30;99.90
35313;DHT22;21425;50.454;30.466;2023-04-07T03:35:46;4.30;99.90
35313;DHT22;21425;50.454;30.466;2023-04-07T03:38:11;4.70;99.90
35313;DHT22;21425;50.454;30.466;2023-04-07T03:40:37;4.50;99.90
35313;DHT22;21425;50.454;30.466;2023-04-07T03:43:02;5.00;99.90
35313;DHT22;21425;50.454;30.466;2023-04-07T03:45:28;4.30;99.90
35313;DHT22;21425;50.454;30.466;2023-04-07T03:47:53;2.70;99.90
35313;DHT22;21425;50.454;30.466;2023-04-07T03:50:19;4.40;99.90
35313;DHT22;21425;50.454;30.466;2023-04-07T03:52:44;4.20;99.90
35313;DHT22;21425;50.454;30.466;2023-04-07T03:55:11;4.20;99.90
35313;DHT22;21425;50.454;30.466;2023-04-07T03:57:36;4.30;99.90
35313;DHT22;21425;50.454;30.466;2023-04-07T04:00:03;5.20;99.90
35313;DHT22;21425;50.454;30.466;2023-04-07T04:02:29;4.20;99.90
35313;DHT22;21425;50.454;30.466;2023-04-07T04:04:54;4.20;99.90
35313;DHT22;21425;50.454;30.466;2023-04-07T04:07:20;4.10;99.90
35313;DHT22;21425;50.454;30.466;2023-04-07T04:09:46;6.50;99.90
35313;DHT22;21425;50.454;30.466;2023-04-07T04:12:11;6.90;99.90
35313;DHT22;21425;50.454;30.466;2023-04-07T04:14:37;4.10;99.90
35313;DHT22;21425;50.454;30.466;2023-04-07T04:17:02;4.20;99.90
35313;DHT22;21425;50.454;30.466;2023-04-07T04:19:27;4.30;99.90
35313;DHT22;21425;50.454;30.466;2023-04-07T04:21:53;4.10;99.90
35313;DHT22;21425;50.454;30.466;2023-04-07T04:24:18;4.10;99.90
35313;DHT22;21425;50.454;30.466;2023-04-07T04:26:44;4.10;99.90
35313;DHT22;21425;50.454;30.466;2023-04-07T04:29:10;4.20;99.90
35313;DHT22;21425;50.454;30.466;2023-04-07T04:31:35;3.70;99.90
35313;DHT22;21425;50.454;30.466;2023-04-07T04:34:01;4.10;99.90
35313;DHT22;21425;50.454;30.466;2023-04-07T04:36:26;4.50;99.90
35313;DHT22;21425;50.454;30.466;2023-04-07T04:38:52;4.20;99.90
35313;DHT22;21425;50.454;30.466;2023-04-07T04:41:17;4.20;99.90
35313;DHT22;21425;50.454;30.466;2023-04-07T04:43:43;4.60;99.90
35313;DHT22;21425;50.454;30.466;2023-04-07T04:46:08;4.40;99.90
35313;DHT22;21425;50.454;30.466;2023-04-07T04:48:34;4.70;99.90
35313;DHT22;21425;50.454;30.466;2023-04-07T04:50:59;4.40;99.90
35313;DHT22;21425;50.454;30.466;2023-04-07T04:53:25;4.50;99.90
35313;DHT22;21425;50.454;30.466;2023-04-07T04:55:50;4.70;99.90
35313;DHT22;21425;50.454;30.466;2023-04-07T04:58:17;4.60;99.90
35313;DHT22;21425;50.454;30.466;2023-04-07T05:00:43;4.50;99.90
35313;DHT22;21425;50.454;30.466;2023-04-07T05:03:09;4.80;99.90
35313;DHT22;21425;50.454;30.466;2023-04-07T05:05:35;4.40;99.90
35313;DHT22;21425;50.454;30.466;2023-04-07T05:08:00;4.40;99.90
35313;DHT22;21425;50.454;30.466;2023-04-07T05:10:26;4.50;99.90
35313;DHT22;21425;50.454;30.466;2023-04-07T05:12:51;4.40;99.90
35313;DHT22;21425;50.454;30.466;2023-04-07T05:15:17;4.80;99.90
35313;DHT22;21425;50.454;30.466;2023-04-07T05:17:42;4.60;99.90
35313;DHT22;21425;50.454;30.466;2023-04-07T05:20:08;4.70;99.90
35313;DHT22;21425;50.454;30.466;2023-04-07T05:22:33;4.80;99.90
35313;DHT22;21425;50.454;30.466;2023-04-07T05:24:59;6.90;99.90
35313;DHT22;21425;50.454;30.466;2023-04-07T05:27:24;5.20;99.90
35313;DHT22;21425;50.454;30.466;2023-04-07T05:29:50;5.10;99.90
35313;DHT22;21425;50.454;30.466;2023-04-07T05:32:17;6.00;99.90
35313;DHT22;21425;50.454;30.466;2023-04-07T05:34:43;5.90;99.90
35313;DHT22;21425;50.454;30.466;2023-04-07T05:37:08;6.00;99.90
35313;DHT22;21425;50.454;30.466;2023-04-07T05:39:34;5.40;99.90
35313;DHT22;21425;50.454;30.466;2023-04-07T05:41:59;5.50;99.90
35313;DHT22;21425;50.454;30.466;2023-04-07T05:44:26;5.60;99.90
35313;DHT22;21425;50.454;30.466;2023-04-07T05:46:51;5.70;99.90
35313;DHT22;21425;50.454;30.466;2023-04-07T05:49:17;6.90;99.90
35313;DHT22;21425;50.454;30.466;2023-04-07T05:51:42;5.60;99.90
35313;DHT22;21425;50.454;30.466;2023-04-07T05:54:08;4.40;99.90
35313;DHT22;21425;50.454;30.466;2023-04-07T05:56:33;9.10;99.90
35313;DHT22;21425;50.454;30.466;2023-04-07T05:58:59;6.00;99.90
35313;DHT22;21425;50.454;30.466;2023-04-07T06:01:26;6.00;99.90
35313;DHT22;21425;50.454;30.466;2023-04-07T06:03:51;6.20;99.90
35313;DHT22;21425;50.454;30.466;2023-04-07T06:06:17;6.10;99.90
35313;DHT22;21425;50.454;30.466;2023-04-07T06:08:42;5.90;99.90
35313;DHT22;21425;50.454;30.466;2023-04-07T06:11:08;7.40;99.90
35313;DHT22;21425;50.454;30.466;2023-04-07T06:13:33;9.40;99.90
35313;DHT22;21425;50.454;30.466;2023-04-07T06:15:59;5.80;99.90
35313;DHT22;21425;50.454;30.466;2023-04-07T06:18:24;5.90;99.90
35313;DHT22;21425;50.454;30.466;2023-04-07T06:20:50;5.80;99.90
35313;DHT22;21425;50.454;30.466;2023-04-07T06:23:15;4.40;99.90
35313;DHT22;21425;50.454;30.466;2023-04-07T06:25:41;6.20;99.90
35313;DHT22;21425;50.454;30.466;2023-04-07T06:28:06;7.40;99.90
35313;DHT22;21425;50.454;30.466;2023-04-07T06:30:32;9.80;99.90
35313;DHT22;21425;50.454;30.466;2023-04-07T06:32:58;6.40;99.90
35313;DHT22;21425;50.454;30.466;2023-04-07T06:35:23;6.50;99.90
35313;DHT22;21425;50.454;30.466;2023-04-07T06:37:51;6.20;99.90
35313;DHT22;21425;50.454;30.466;2023-04-07T06:40:16;6.30;99.90
35313;DHT22;21425;50.454;30.466;2023-04-07T06:42:42;6.30;99.90
35313;DHT22;21425;50.454;30.466;2023-04-07T06:45:07;6.50;99.90
35313;DHT22;21425;50.454;30.466;2023-04-07T06:47:33;5.30;99.90
35313;DHT22;21425;50.454;30.466;2023-04-07T06:49:59;7.80;99.90
35313;DHT22;21425;50.454;30.466;2023-04-07T06:52:24;6.60;99.90
35313;DHT22;21425;50.454;30.466;2023-04-07T06:54:50;5.10;99.90
35313;DHT22;21425;50.454;30.466;2023-04-07T06:57:15;6.70;99.90
35313;DHT22;21425;50.454;30.466;2023-04-07T06:59:41;6.80;99.90
35313;DHT22;21425;50.454;30.466;2023-04-07T07:02:07;7.30;99.90
35313;DHT22;21425;50.454;30.466;2023-04-07T07:04:35;6.80;99.90
35313;DHT22;21425;50.454;30.466;2023-04-07T07:07:01;6.70;99.90
35313;DHT22;21425;50.454;30.466;2023-04-07T07:09:27;6.60;99.90
35313;DHT22;21425;50.454;30.466;2023-04-07T07:11:53;6.80;99.90
35313;DHT22;21425;50.454;30.466;2023-04-07T07:14:18;6.50;99.90
35313;DHT22;21425;50.454;30.466;2023-04-07T07:16:43;7.60;99.90
35313;DHT22;21425;50.454;30.466;2023-04-07T07:19:09;7.20;99.90
35313;DHT22;21425;50.454;30.466;2023-04-07T07:21:35;7.00;99.90
35313;DHT22;21425;50.454;30.466;2023-04-07T07:24:00;7.20;99.90
35313;DHT22;21425;50.454;30.466;2023-04-07T07:26:26;9.50;99.90
35313;DHT22;21425;50.454;30.466;2023-04-07T07:28:51;5.50;99.90
35313;DHT22;21425;50.454;30.466;2023-04-07T07:31:17;7.50;99.90
35313;DHT22;21425;50.454;30.466;2023-04-07T07:33:43;7.30;99.90
35313;DHT22;21425;50.454;30.466;2023-04-07T07:36:10;8.40;99.90
35313;DHT22;21425;50.454;30.466;2023-04-07T07:38:36;7.70;99.90
35313;DHT22;21425;50.454;30.466;2023-04-07T07:41:01;8.50;99.90
35313;DHT22;21425;50.454;30.466;2023-04-07T07:43:27;7.30;99.90
35313;DHT22;21425;50.454;30.466;2023-04-07T07:45:52;9.90;99.90
35313;DHT22;21425;50.454;30.466;2023-04-07T07:48:18;5.20;99.90
35313;DHT22;21425;50.454;30.466;2023-04-07T07:50:43;7.80;99.90
35313;DHT22;21425;50.454;30.466;2023-04-07T07:53:09;7.70;99.90
35313;DHT22;21425;50.454;30.466;2023-04-07T07:55:35;8.00;99.90
35313;DHT22;21425;50.454;30.466;2023-04-07T07:58:00;7.60;99.90
35313;DHT22;21425;50.454;30.466;2023-04-07T08:00:26;8.30;99.90
35313;DHT22;21425;50.454;30.466;2023-04-07T08:02:51;7.80;99.90
35313;DHT22;21425;50.454;30.466;2023-04-07T08:05:17;8.20;99.90
35313;DHT22;21425;50.454;30.466;2023-04-07T08:07:43;8.10;99.90
35313;DHT22;21425;50.454;30.466;2023-04-07T08:10:08;8.10;99.90
35313;DHT22;21425;50.454;30.466;2023-04-07T08:12:34;7.80;99.90
35313;DHT22;21425;50.454;30.466;2023-04-07T08:14:59;8.00;99.90
35313;DHT22;21425;50.454;30.466;2023-04-07T08:17:25;8.50;99.90
35313;DHT22;21425;50.454;30.466;2023-04-07T08:19:51;10.50;99.90
35313;DHT22;21425;50.454;30.466;2023-04-07T08:22:16;8.00;99.90
35313;DHT22;21425;50.454;30.466;2023-04-07T08:24:44;8.30;99.90
35313;DHT22;21425;50.454;30.466;2023-04-07T08:27:09;8.30;99.90
35313;DHT22;21425;50.454;30.466;2023-04-07T08:29:35;8.60;99.90
35313;DHT22;21425;50.454;30.466;2023-04-07T08:32:00;8.60;99.90
35313;DHT22;21425;50.454;30.466;2023-04-07T08:34:26;11.30;99.90
35313;DHT22;21425;50.454;30.466;2023-04-07T08:36:51;9.00;99.90
35313;DHT22;21425;50.454;30.466;2023-04-07T08:39:17;9.00;99.90
35313;DHT22;21425;50.454;30.466;2023-04-07T08:41:42;10.20;99.90
35313;DHT22;21425;50.454;30.466;2023-04-07T08:44:09;9.20;99.90
35313;DHT22;21425;50.454;30.466;2023-04-07T08:46:37;9.50;99.90
35313;DHT22;21425;50.454;30.466;2023-04-07T08:49:02;9.30;99.90
35313;DHT22;21425;50.454;30.466;2023-04-07T08:51:32;9.10;99.90
35313;DHT22;21425;50.454;30.466;2023-04-07T08:54:05;9.00;99.90
35313;DHT22;21425;50.454;30.466;2023-04-07T08:56:31;9.20;99.90
35313;DHT22;21425;50.454;30.466;2023-04-07T08:58:57;9.50;99.90
35313;DHT22;21425;50.454;30.466;2023-04-07T09:01:23;9.70;99.90
35313;DHT22;21425;50.454;30.466;2023-04-07T09:03:49;10.40;99.90
35313;DHT22;21425;50.454;30.466;2023-04-07T09:06:15;10.20;99.90
35313;DHT22;21425;50.454;30.466;2023-04-07T09:08:42;10.30;99.90
35313;DHT22;21425;50.454;30.466;2023-04-07T09:11:07;10.20;99.90
35313;DHT22;21425;50.454;30.466;2023-04-07T09:13:33;11.70;99.90
35313;DHT22;21425;50.454;30.466;2023-04-07T09:16:00;10.30;99.90
35313;DHT22;21425;50.454;30.466;2023-04-07T09:18:26;10.50;99.90
35313;DHT22;21425;50.454;30.466;2023-04-07T09:20:56;10.50;99.90
35313;DHT22;21425;50.454;30.466;2023-04-07T09:23:31;10.30;99.90
35313;DHT22;21425;50.454;30.466;2023-04-07T09:25:58;10.30;99.90
35313;DHT22;21425;50.454;30.466;2023-04-07T09:28:24;10.10;99.90
35313;DHT22;21425;50.454;30.466;2023-04-07T09:30:53;10.10;99.90
35313;DHT22;21425;50.454;30.466;2023-04-07T09:33:26;10.40;99.90
35313;DHT22;21425;50.454;30.466;2023-04-07T09:35:52;10.50;99.90
35313;DHT22;21425;50.454;30.466;2023-04-07T09:38:19;10.50;99.90
35313;DHT22;21425;50.454;30.466;2023-04-07T09:40:44;10.60;99.90
35313;DHT22;21425;50.454;30.466;2023-04-07T09:43:17;10.80;99.90
35313;DHT22;21425;50.454;30.466;2023-04-07T09:45:43;10.70;99.90
35313;DHT22;21425;50.454;30.466;2023-04-07T09:48:18;11.60;99.90
35313;DHT22;21425;50.454;30.466;2023-04-07T09:50:44;10.60;99.90
35313;DHT22;21425;50.454;30.466;2023-04-07T09:53:16;12.30;99.90
35313;DHT22;21425;50.454;30.466;2023-04-07T09:55:43;11.20;99.90
35313;DHT22;21425;50.454;30.466;2023-04-07T09:58:12;11.30;98.90
35313;DHT22;21425;50.454;30.466;2023-04-07T10:00:38;11.20;99.90
35313;DHT22;21425;50.454;30.466;2023-04-07T10:03:04;11.30;99.90
35313;DHT22;21425;50.454;30.466;2023-04-07T10:05:31;11.10;99.20
35313;DHT22;21425;50.454;30.466;2023-04-07T10:07:59;11.80;98.40
35313;DHT22;21425;50.454;30.466;2023-04-07T10:10:25;11.40;97.40
35313;DHT22;21425;50.454;30.466;2023-04-07T10:12:51;11.70;96.00
35313;DHT22;21425;50.454;30.466;2023-04-07T10:15:18;11.70;96.50
35313;DHT22;21425;50.454;30.466;2023-04-07T10:17:44;12.20;94.80
35313;DHT22;21425;50.454;30.466;2023-04-07T10:20:11;10.30;94.20
35313;DHT22;21425;50.454;30.466;2023-04-07T10:22:37;12.00;95.00
35313;DHT22;21425;50.454;30.466;2023-04-07T10:25:07;12.40;94.40
35313;DHT22;21425;50.454;30.466;2023-04-07T10:27:36;11.90;92.90
35313;DHT22;21425;50.454;30.466;2023-04-07T10:30:04;12.30;92.50
35313;DHT22;21425;50.454;30.466;2023-04-07T10:32:31;12.20;90.00
35313;DHT22;21425;50.454;30.466;2023-04-07T10:34:57;12.20;90.90
35313;DHT22;21425;50.454;30.466;2023-04-07T10:37:23;12.50;90.80
35313;DHT22;21425;50.454;30.466;2023-04-07T10:39:49;12.50;87.00
35313;DHT22;21425;50.454;30.466;2023-04-07T10:44:59;11.50;91.40
35313;DHT22;21425;50.454;30.466;2023-04-07T10:47:25;11.30;90.90
35313;DHT22;21425;50.454;30.466;2023-04-07T10:52:35;11.70;88.20
35313;DHT22;21425;50.454;30.466;2023-04-07T10:58:11;12.60;84.90
35313;DHT22;21425;50.454;30.466;2023-04-07T11:00:36;12.50;84.00
35313;DHT22;21425;50.454;30.466;2023-04-07T11:03:09;12.60;80.90
35313;DHT22;21425;50.454;30.466;2023-04-07T11:05:35;12.80;79.70
35313;DHT22;21425;50.454;30.466;2023-04-07T11:08:03;13.00;77.80
35313;DHT22;21425;50.454;30.466;2023-04-07T11:10:31;13.00;76.00
35313;DHT22;21425;50.454;30.466;2023-04-07T11:13:00;13.10;74.30
35313;DHT22;21425;50.454;30.466;2023-04-07T11:15:26;13.10;73.80
35313;DHT22;21425;50.454;30.466;2023-04-07T11:20:49;13.00;71.10
35313;DHT22;21425;50.454;30.466;2023-04-07T11:23:16;13.90;70.00
35313;DHT22;21425;50.454;30.466;2023-04-07T11:25:43;13.90;66.40
35313;DHT22;21425;50.454;30.466;2023-04-07T11:28:09;13.50;67.90
35313;DHT22;21425;50.454;30.466;2023-04-07T11:30:36;14.00;71.40
35313;DHT22;21425;50.454;30.466;2023-04-07T11:33:02;13.40;71.00
35313;DHT22;21425;50.454;30.466;2023-04-07T11:35:28;13.40;70.20
35313;DHT22;21425;50.454;30.466;2023-04-07T11:38:00;13.50;73.50
35313;DHT22;21425;50.454;30.466;2023-04-07T11:40:30;11.80;75.60
35313;DHT22;21425;50.454;30.466;2023-04-07T11:42:58;12.30;75.60
35313;DHT22;21425;50.454;30.466;2023-04-07T11:45:25;11.40;74.80
35313;DHT22;21425;50.454;30.466;2023-04-07T11:47:50;13.00;74.20
35313;DHT22;21425;50.454;30.466;2023-04-07T11:50:16;12.90;75.00
35313;DHT22;21425;50.454;30.466;2023-04-07T11:52:45;12.20;74.80
35313;DHT22;21425;50.454;30.466;2023-04-07T11:55:18;12.30;76.20
35313;DHT22;21425;50.454;30.466;2023-04-07T11:57:43;12.60;74.30
35313;DHT22;21425;50.454;30.466;2023-04-07T12:00:10;12.10;72.40
35313;DHT22;21425;50.454;30.466;2023-04-07T12:02:36;13.20;71.60
35313;DHT22;21425;50.454;30.466;2023-04-07T12:05:02;13.30;71.40
35313;DHT22;21425;50.454;30.466;2023-04-07T12:07:28;13.30;70.70
35313;DHT22;21425;50.454;30.466;2023-04-07T12:09:53;13.50;69.70
35313;DHT22;21425;50.454;30.466;2023-04-07T12:12:26;13.80;67.90
35313;DHT22;21425;50.454;30.466;2023-04-07T12:14:52;13.40;66.60
35313;DHT22;21425;50.454;30.466;2023-04-07T12:17:24;13.50;67.00
35313;DHT22;21425;50.454;30.466;2023-04-07T12:19:50;13.70;66.90
35313;DHT22;21425;50.454;30.466;2023-04-07T12:22:16;13.90;66.50
35313;DHT22;21425;50.454;30.466;2023-04-07T12:24:42;13.60;66.20
35313;DHT22;21425;50.454;30.466;2023-04-07T12:27:07;13.50;66.20
35313;DHT22;21425;50.454;30.466;2023-04-07T12:29:34;13.90;66.20
35313;DHT22;21425;50.454;30.466;2023-04-07T12:32:01;13.20;65.20
35313;DHT22;21425;50.454;30.466;2023-04-07T12:34:27;13.30;67.10
35313;DHT22;21425;50.454;30.466;2023-04-07T12:36:52;14.10;66.00
35313;DHT22;21425;50.454;30.466;2023-04-07T12:39:18;15.60;59.30
35313;DHT22;21425;50.454;30.466;2023-04-07T12:41:44;15.30;55.60
35313;DHT22;21425;50.454;30.466;2023-04-07T12:44:14;16.90;52.60
35313;DHT22;21425;50.454;30.466;2023-04-07T12:46:39;18.70;48.10
35313;DHT22;21425;50.454;30.466;2023-04-07T12:49:05;20.00;44.00
35313;DHT22;21425;50.454;30.466;2023-04-07T12:51:31;21.50;39.10
35313;DHT22;21425;50.454;30.466;2023-04-07T12:53:58;22.40;34.80
35313;DHT22;21425;50.454;30.466;2023-04-07T12:56:25;22.20;35.40
35313;DHT22;21425;50.454;30.466;2023-04-07T12:58:50;22.60;34.50
35313;DHT22;21425;50.454;30.466;2023-04-07T13:01:17;22.60;33.90
35313;DHT22;21425;50.454;30.466;2023-04-07T13:03:43;24.10;31.90
35313;DHT22;21425;50.454;30.466;2023-04-07T13:06:09;23.90;30.90
35313;DHT22;21425;50.454;30.466;2023-04-07T13:08:35;24.90;29.90
35313;DHT22;21425;50.454;30.466;2023-04-07T13:11:00;25.20;29.20
35313;DHT22;21425;50.454;30.466;2023-04-07T13:13:26;25.00;29.10
35313;DHT22;21425;50.454;30.466;2023-04-07T13:15:52;25.90;28.20
35313;DHT22;21425;50.454;30.466;2023-04-07T13:18:17;24.50;28.60
35313;DHT22;21425;50.454;30.466;2023-04-07T13:20:43;24.50;28.40
35313;DHT22;21425;50.454;30.466;2023-04-07T13:23:08;24.20;28.90
35313;DHT22;21425;50.454;30.466;2023-04-07T13:25:34;24.30;29.50
35313;DHT22;21425;50.454;30.466;2023-04-07T13:28:00;22.60;29.40
35313;DHT22;21425;50.454;30.466;2023-04-07T13:30:25;23.70;30.00
35313;DHT22;21425;50.454;30.466;2023-04-07T13:32:51;23.40;29.80
35313;DHT22;21425;50.454;30.466;2023-04-07T13:35:17;19.40;28.70
35313;DHT22;21425;50.454;30.466;2023-04-07T13:37:42;24.30;29.10
35313;DHT22;21425;50.454;30.466;2023-04-07T13:40:09;24.00;28.10
35313;DHT22;21425;50.454;30.466;2023-04-07T13:42:35;21.50;30.70
35313;DHT22;21425;50.454;30.466;2023-04-07T13:45:00;21.90;32.20
35313;DHT22;21425;50.454;30.466;2023-04-07T13:47:26;21.90;32.80
35313;DHT22;21425;50.454;30.466;2023-04-07T13:49:53;20.40;32.70
35313;DHT22;21425;50.454;30.466;2023-04-07T13:52:19;21.60;33.30
35313;DHT22;21425;50.454;30.466;2023-04-07T13:54:44;22.20;32.40
35313;DHT22;21425;50.454;30.466;2023-04-07T13:57:10;22.80;30.70
35313;DHT22;21425;50.454;30.466;2023-04-07T13:59:36;21.00;32.40
35313;DHT22;21425;50.454;30.466;2023-04-07T14:02:01;21.00;32.80
35313;DHT22;21425;50.454;30.466;2023-04-07T14:04:27;21.70;32.80
35313;DHT22;21425;50.454;30.466;2023-04-07T14:06:53;22.70;31.50
35313;DHT22;21425;50.454;30.466;2023-04-07T14:09:18;24.00;29.50
35313;DHT22;21425;50.454;30.466;2023-04-07T14:11:43;24.40;29.10
35313;DHT22;21425;50.454;30.466;2023-04-07T14:14:09;24.10;28.40
35313;DHT22;21425;50.454;30.466;2023-04-07T14:16:35;23.90;28.60
35313;DHT22;21425;50.454;30.466;2023-04-07T14:19:00;22.50;29.70
35313;DHT22;21425;50.454;30.466;2023-04-07T14:21:26;22.90;29.90
35313;DHT22;21425;50.454;30.466;2023-04-07T14:23:52;18.80;34.40
35313;DHT22;21425;50.454;30.466;2023-04-07T14:26:18;16.70;40.30
35313;DHT22;21425;50.454;30.466;2023-04-07T14:28:43;15.70;43.40
35313;DHT22;21425;50.454;30.466;2023-04-07T14:31:12;16.50;42.70
35313;DHT22;21425;50.454;30.466;2023-04-07T14:33:38;17.50;40.40
35313;DHT22;21425;50.454;30.466;2023-04-07T14:36:04;17.60;40.20
35313;DHT22;21425;50.454;30.466;2023-04-07T14:38:30;17.50;39.60
35313;DHT22;21425;50.454;30.466;2023-04-07T14:40:55;17.00;41.20
35313;DHT22;21425;50.454;30.466;2023-04-07T14:43:21;17.40;40.50
35313;DHT22;21425;50.454;30.466;2023-04-07T14:45:46;18.40;37.50
35313;DHT22;21425;50.454;30.466;2023-04-07T14:48:12;17.60;38.40
35313;DHT22;21425;50.454;30.466;2023-04-07T14:50:37;17.10;40.70
35313;DHT22;21425;50.454;30.466;2023-04-07T14:55:31;15.20;44.00
35313;DHT22;21425;50.454;30.466;2023-04-07T15:00:22;17.30;41.10
35313;DHT22;21425;50.454;30.466;2023-04-07T15:02:49;18.90;40.00
35313;DHT22;21425;50.454;30.466;2023-04-07T15:05:15;18.10;37.50
35313;DHT22;21425;50.454;30.466;2023-04-07T15:10:06;20.40;36.00
35313;DHT22;21425;50.454;30.466;2023-04-07T15:12:32;21.10;34.40
35313;DHT22;21425;50.454;30.466;2023-04-07T15:14:57;21.40;33.20
35313;DHT22;21425;50.454;30.466;2023-04-07T15:17:23;21.90;32.90
35313;DHT22;21425;50.454;30.466;2023-04-07T15:19:48;21.80;32.50
35313;DHT22;21425;50.454;30.466;2023-04-07T15:22:14;21.10;32.80
35313;DHT22;21425;50.454;30.466;2023-04-07T15:24:39;21.40;33.40
35313;DHT22;21425;50.454;30.466;2023-04-07T15:27:05;20.00;35.00
35313;DHT22;21425;50.454;30.466;2023-04-07T15:29:31;19.60;35.60
35313;DHT22;21425;50.454;30.466;2023-04-07T15:34:22;19.30;37.30
35313;DHT22;21425;50.454;30.466;2023-04-07T15:36:48;19.40;37.30
35313;DHT22;21425;50.454;30.466;2023-04-07T15:39:13;17.80;38.10
35313;DHT22;21425;50.454;30.466;2023-04-07T15:41:39;17.60;40.10
35313;DHT22;21425;50.454;30.466;2023-04-07T15:44:04;17.50;40.30
35313;DHT22;21425;50.454;30.466;2023-04-07T15:46:30;16.80;41.60
35313;DHT22;21425;50.454;30.466;2023-04-07T15:48:59;17.60;41.30